Time;durP1;ratioP1;P1;durP2;ratioP2;P2;SDS_P1;SDS_P2;PMS_P1;PMS_P2;Temp;Humidity;BMP_temperature;BMP_pressure;BME280_temperature;BME280_humidity;BME280_pressure;Samples;Min_cycle;Max_cycle;Signal;HPM_P1;HPM_P2
2022/05/03 00:01:12;;;;;;;;;;;11.10;1.00;;;;;;10241744;28;84774;-56
2022/05/03 00:06:26;;;;;;;;;;;10.90;1.00;;;;;;10245541;28;84991;-54
2022/05/03 00:11:30;;;;;;;;;;;10.80;1.00;;;;;;10245700;28;84961;-56
2022/05/03 00:16:32;;;;;;;;;;;10.70;1.00;;;;;;10235424;28;84748;-52
2022/05/03 00:21:34;;;;;;;;;;;10.70;1.00;;;;;;10245623;28;84933;-55
2022/05/03 00:26:35;;;;;;;;;;;10.60;1.00;;;;;;10244190;28;84038;-53
2022/05/03 00:31:35;;;;;;;;;;;10.60;1.00;;;;;;10245106;28;84237;-54
2022/05/03 00:36:36;;;;;;;;;;;10.60;1.00;;;;;;10226944;28;85858;-51
2022/05/03 00:41:42;;;;;;;;;;;10.50;1.00;;;;;;10245539;28;84859;-57
2022/05/03 00:46:43;;;;;;;;;;;10.60;1.00;;;;;;10244249;28;84295;-56
2022/05/03 00:52:16;;;;;;;;;;;10.60;1.00;;;;;;10227681;28;86816;-55
2022/05/03 00:57:20;;;;;;;;;;;10.40;1.00;;;;;;10180119;28;84872;-57
2022/05/03 01:02:28;;;;;;;;;;;10.30;1.00;;;;;;10204951;28;84749;-55
2022/05/03 01:07:35;;;;;;;;;;;10.30;1.00;;;;;;10229167;28;84812;-54
2022/05/03 01:12:46;;;;;;;;;;;10.30;1.00;;;;;;10243406;28;84188;-53
2022/05/03 01:17:48;;;;;;;;;;;10.20;1.00;;;;;;10244195;28;84821;-54
2022/05/03 01:22:58;;;;;;;;;;;10.20;1.00;;;;;;10244242;28;84170;-53
2022/05/03 01:27:59;;;;;;;;;;;10.10;1.00;;;;;;10207404;28;84858;-55
2022/05/03 01:33:16;;;;;;;;;;;10.00;1.00;;;;;;10203879;28;84222;-56
2022/05/03 01:38:35;;;;;;;;;;;9.90;1.00;;;;;;10206647;28;84735;-55
2022/05/03 01:43:55;;;;;;;;;;;9.90;1.00;;;;;;10211246;28;84084;-55
2022/05/03 01:54:40;;;;;;;;;;;9.70;1.00;;;;;;10250329;28;84081;-57
2022/05/03 01:59:59;;;;;;;;;;;9.60;1.00;;;;;;10211621;28;84423;-54
2022/05/03 02:05:03;;;;;;;;;;;9.60;1.00;;;;;;10209218;28;84106;-54
2022/05/03 02:10:04;;;;;;;;;;;9.50;1.00;;;;;;10208146;28;84142;-54
2022/05/03 02:15:09;;;;;;;;;;;9.50;1.00;;;;;;10216086;28;85016;-56
2022/05/03 02:20:10;;;;;;;;;;;9.40;1.00;;;;;;10248518;28;84246;-54
2022/05/03 02:25:25;;;;;;;;;;;9.30;1.00;;;;;;10249235;28;84103;-57
2022/05/03 02:30:31;;;;;;;;;;;9.20;1.00;;;;;;10248302;28;85066;-56
2022/05/03 02:35:34;;;;;;;;;;;9.10;1.00;;;;;;10224764;28;84356;-54
2022/05/03 02:40:39;;;;;;;;;;;9.10;1.00;;;;;;10296828;22;84966;-47
2022/05/03 02:45:43;;;;;;;;;;;9.00;1.00;;;;;;10289737;28;84886;-51
2022/05/03 02:50:57;;;;;;;;;;;9.00;1.00;;;;;;10290803;28;84260;-47
2022/05/03 02:55:58;;;;;;;;;;;8.90;1.00;;;;;;10287372;28;84055;-45
2022/05/03 03:06:38;;;;;;;;;;;8.80;1.00;;;;;;10247393;28;84969;-48
2022/05/03 03:11:52;;;;;;;;;;;8.70;1.00;;;;;;10276980;28;84004;-48
2022/05/03 03:17:03;;;;;;;;;;;8.70;1.00;;;;;;10270190;28;85007;-50
2022/05/03 03:22:06;;;;;;;;;;;8.70;1.00;;;;;;10248688;28;85910;-48
2022/05/03 03:27:11;;;;;;;;;;;8.70;1.00;;;;;;10268564;28;85091;-50
2022/05/03 03:32:15;;;;;;;;;;;8.70;1.00;;;;;;10288389;28;84093;-47
2022/05/03 03:37:16;;;;;;;;;;;8.60;1.00;;;;;;10270544;28;86478;-49
2022/05/03 03:42:16;;;;;;;;;;;8.50;1.00;;;;;;10287936;28;84201;-47
2022/05/03 03:47:17;;;;;;;;;;;8.40;1.00;;;;;;10287403;28;84190;-51
2022/05/03 03:52:17;;;;;;;;;;;8.40;1.00;;;;;;10287792;28;84020;-48
2022/05/03 03:57:20;;;;;;;;;;;8.30;1.00;;;;;;10286693;28;84765;-48
2022/05/03 04:02:22;;;;;;;;;;;8.30;1.00;;;;;;10285854;28;84965;-47
2022/05/03 04:07:23;;;;;;;;;;;8.20;1.00;;;;;;10286489;28;84208;-49
2022/05/03 04:12:24;;;;;;;;;;;8.20;1.00;;;;;;10286835;28;84131;-51
2022/05/03 04:17:25;;;;;;;;;;;8.10;1.00;;;;;;10286516;28;84840;-49
2022/05/03 04:22:29;;;;;;;;;;;8.20;1.00;;;;;;10286996;28;85019;-47
2022/05/03 04:27:30;;;;;;;;;;;8.20;1.00;;;;;;10282586;28;84266;-47
2022/05/03 04:32:32;;;;;;;;;;;8.20;1.00;;;;;;10284964;28;86249;-54
2022/05/03 04:37:32;;;;;;;;;;;8.20;1.00;;;;;;10284625;28;84163;-50
2022/05/03 04:42:33;;;;;;;;;;;8.30;1.00;;;;;;10285640;28;84862;-50
2022/05/03 04:47:33;;;;;;;;;;;8.40;1.00;;;;;;10284528;28;84889;-48
2022/05/03 04:52:34;;;;;;;;;;;8.40;1.00;;;;;;10266403;28;86104;-50
2022/05/03 04:57:34;;;;;;;;;;;8.30;1.00;;;;;;10265928;28;86892;-49
2022/05/03 05:02:36;;;;;;;;;;;8.30;1.00;;;;;;10283719;28;84108;-50
2022/05/03 05:07:36;;;;;;;;;;;8.30;1.00;;;;;;10283497;28;85077;-47
2022/05/03 05:12:37;;;;;;;;;;;8.40;1.00;;;;;;10287355;28;84792;-48
2022/05/03 05:17:37;;;;;;;;;;;8.40;1.00;;;;;;10289969;28;85054;-48
2022/05/03 05:22:38;;;;;;;;;;;8.50;1.00;;;;;;10291096;28;85073;-46
2022/05/03 05:27:39;;;;;;;;;;;8.70;1.00;;;;;;10271331;28;86078;-46
2022/05/03 05:32:39;;;;;;;;;;;8.80;1.00;;;;;;10291318;28;84907;-46
2022/05/03 05:37:40;;;;;;;;;;;9.00;1.00;;;;;;10289526;28;84062;-49
2022/05/03 05:42:40;;;;;;;;;;;9.10;1.00;;;;;;10290261;28;84734;-48
2022/05/03 05:47:41;;;;;;;;;;;9.20;1.00;;;;;;10303414;28;84723;-49
2022/05/03 05:58:00;;;;;;;;;;;9.50;1.00;;;;;;10301168;28;84496;-49
2022/05/03 06:03:01;;;;;;;;;;;9.70;99.90;;;;;;10285961;28;84234;-51
2022/05/03 06:08:02;;;;;;;;;;;9.90;99.90;;;;;;10256968;28;85139;-48
2022/05/03 06:13:02;;;;;;;;;;;10.10;99.90;;;;;;10284104;28;84241;-47
2022/05/03 06:18:04;;;;;;;;;;;10.30;99.90;;;;;;10289453;28;84887;-60
2022/05/03 06:23:05;;;;;;;;;;;10.50;99.90;;;;;;10294617;28;84251;-45
2022/05/03 06:28:05;;;;;;;;;;;10.70;99.90;;;;;;10277187;28;84569;-50
2022/05/03 06:33:06;;;;;;;;;;;10.90;99.90;;;;;;10290045;28;84179;-47
2022/05/03 06:38:06;;;;;;;;;;;11.00;99.90;;;;;;10272835;28;85886;-47
2022/05/03 06:43:08;;;;;;;;;;;11.40;1.00;;;;;;10275634;28;86823;-50
2022/05/03 06:48:12;;;;;;;;;;;11.60;1.00;;;;;;10271255;28;84246;-46
2022/05/03 06:53:13;;;;;;;;;;;11.70;1.00;;;;;;10272473;28;86917;-50
2022/05/03 06:58:13;;;;;;;;;;;12.20;99.90;;;;;;10289321;28;84353;-46
2022/05/03 07:03:14;;;;;;;;;;;12.70;99.90;;;;;;10289819;28;84236;-46
2022/05/03 07:08:14;;;;;;;;;;;13.10;1.00;;;;;;10288941;28;84063;-48
2022/05/03 07:13:15;;;;;;;;;;;13.90;99.90;;;;;;10289799;28;84139;-46
2022/05/03 07:23:35;;;;;;;;;;;15.10;1.00;;;;;;10290601;28;84327;-46
2022/05/03 07:28:36;;;;;;;;;;;15.60;1.00;;;;;;10288343;28;85047;-49
2022/05/03 07:33:36;;;;;;;;;;;15.90;1.00;;;;;;10288151;28;84673;-48
2022/05/03 07:38:38;;;;;;;;;;;16.20;1.00;;;;;;10287327;28;84228;-47
2022/05/03 07:43:38;;;;;;;;;;;16.90;1.00;;;;;;10288408;28;84982;-47
2022/05/03 07:48:39;;;;;;;;;;;17.10;1.00;;;;;;10270055;28;85985;-49
2022/05/03 07:53:39;;;;;;;;;;;17.50;1.00;;;;;;10288413;28;89848;-48
2022/05/03 07:58:40;;;;;;;;;;;17.60;99.90;;;;;;10269383;28;86868;-46
2022/05/03 08:03:40;;;;;;;;;;;18.20;99.90;;;;;;10288934;28;84104;-47
2022/05/03 08:08:41;;;;;;;;;;;18.70;1.00;;;;;;10287955;28;84964;-48
2022/05/03 08:13:43;;;;;;;;;;;18.80;1.00;;;;;;10288765;28;84383;-49
2022/05/03 08:18:43;;;;;;;;;;;18.70;1.00;;;;;;10287118;28;84101;-47
2022/05/03 08:23:44;;;;;;;;;;;19.50;1.00;;;;;;10287689;28;84944;-47
2022/05/03 08:28:45;;;;;;;;;;;20.10;99.90;;;;;;10286824;28;84226;-48
2022/05/03 08:33:47;;;;;;;;;;;20.10;99.90;;;;;;10288293;28;84075;-46
2022/05/03 08:44:07;;;;;;;;;;;20.90;99.90;;;;;;10285846;28;84841;-52
2022/05/03 08:49:12;;;;;;;;;;;21.00;99.90;;;;;;10291588;28;84225;-53
2022/05/03 08:54:13;;;;;;;;;;;21.50;99.90;;;;;;10293267;28;84898;-56
2022/05/03 08:59:14;;;;;;;;;;;21.60;99.90;;;;;;10274093;28;86810;-57
2022/05/03 09:04:15;;;;;;;;;;;22.30;99.90;;;;;;10292313;28;84100;-55
2022/05/03 09:09:16;;;;;;;;;;;22.50;99.90;;;;;;10291711;28;85100;-55
2022/05/03 09:14:36;;;;;;;;;;;22.60;99.90;;;;;;10294294;28;84379;-55
2022/05/03 09:19:36;;;;;;;;;;;22.60;99.90;;;;;;10292308;28;84161;-56
2022/05/03 09:25:09;;;;;;;;;;;22.90;99.90;;;;;;10258649;28;86956;-54
2022/05/03 09:30:10;;;;;;;;;;;23.60;99.90;;;;;;10247404;28;84759;-54
2022/05/03 09:35:29;;;;;;;;;;;22.20;11.30;;;;;;10292826;28;84093;-55
2022/05/03 09:40:38;;;;;;;;;;;22.90;94.50;;;;;;10274123;28;85386;-51
2022/05/03 09:45:39;;;;;;;;;;;22.60;1.00;;;;;;10291303;28;84164;-54
2022/05/03 09:50:43;;;;;;;;;;;22.70;1.00;;;;;;10291040;28;84103;-51
2022/05/03 09:55:48;;;;;;;;;;;23.30;1.00;;;;;;10290572;28;85046;-55
2022/05/03 10:00:49;;;;;;;;;;;23.80;1.00;;;;;;10290130;28;84826;-51
2022/05/03 10:05:50;;;;;;;;;;;24.20;1.00;;;;;;10290522;28;84182;-53
2022/05/03 10:10:56;;;;;;;;;;;24.50;1.00;;;;;;10290618;28;84948;-55
2022/05/03 10:21:20;;;;;;;;;;;24.80;98.50;;;;;;10270122;28;87522;-50
2022/05/03 10:26:21;;;;;;;;;;;24.50;99.90;;;;;;10269831;28;84919;-58
2022/05/03 10:31:21;;;;;;;;;;;22.80;99.90;;;;;;10293263;28;84367;-57
2022/05/03 10:36:34;;;;;;;;;;;23.70;99.90;;;;;;10290112;28;84828;-62
2022/05/03 10:41:51;;;;;;;;;;;25.10;99.90;;;;;;10286276;28;84699;-50
2022/05/03 10:46:51;;;;;;;;;;;25.40;99.90;;;;;;10272666;28;86050;-53
2022/05/03 10:51:52;;;;;;;;;;;25.00;99.90;;;;;;10293401;28;84154;-55
2022/05/03 10:57:00;;;;;;;;;;;25.70;99.90;;;;;;10270522;28;84256;-54
2022/05/03 11:02:06;;;;;;;;;;;26.00;99.90;;;;;;10286425;28;84534;-53
2022/05/03 11:07:07;;;;;;;;;;;25.70;99.90;;;;;;10305397;28;85217;-53
2022/05/03 11:12:07;;;;;;;;;;;25.70;99.90;;;;;;10290638;28;85839;-51
2022/05/03 11:17:09;;;;;;;;;;;25.60;99.90;;;;;;10287335;28;84974;-50
2022/05/03 11:22:14;;;;;;;;;;;24.90;99.90;;;;;;10290709;28;84145;-52
2022/05/03 11:27:16;;;;;;;;;;;25.50;1.00;;;;;;10286207;28;84389;-57
2022/05/03 11:32:27;;;;;;;;;;;25.70;1.00;;;;;;10271450;28;84355;-52
2022/05/03 11:37:27;;;;;;;;;;;25.60;1.00;;;;;;10299133;28;85493;-54
2022/05/03 11:42:34;;;;;;;;;;;25.90;1.00;;;;;;10286957;28;84997;-52
2022/05/03 11:47:45;;;;;;;;;;;25.50;1.00;;;;;;10276855;28;86012;-54
2022/05/03 11:58:06;;;;;;;;;;;24.30;1.00;;;;;;10306159;28;84404;-60
2022/05/03 12:03:07;;;;;;;;;;;25.50;1.00;;;;;;10287184;28;85020;-55
2022/05/03 12:08:19;;;;;;;;;;;26.10;1.00;;;;;;10251630;28;86058;-63
2022/05/03 12:13:22;;;;;;;;;;;25.40;1.00;;;;;;10304068;28;85045;-57
2022/05/03 12:18:25;;;;;;;;;;;24.40;1.00;;;;;;10313030;28;84947;-61
2022/05/03 12:23:31;;;;;;;;;;;23.40;1.00;;;;;;10308130;28;85889;-57
2022/05/03 12:28:35;;;;;;;;;;;23.20;1.00;;;;;;10325454;28;84906;-53
2022/05/03 12:33:40;;;;;;;;;;;22.30;1.00;;;;;;10327259;28;84104;-57
2022/05/03 12:38:48;;;;;;;;;;;22.00;1.00;;;;;;10307515;28;84237;-58
2022/05/03 12:44:02;;;;;;;;;;;20.90;1.00;;;;;;10315349;28;84348;-54
2022/05/03 12:49:09;;;;;;;;;;;21.40;1.00;;;;;;10293413;28;84236;-60
2022/05/03 12:54:10;;;;;;;;;;;23.60;1.00;;;;;;10327633;28;84303;-60
2022/05/03 12:59:11;;;;;;;;;;;24.00;1.00;;;;;;10280365;28;85892;-57
2022/05/03 13:04:12;;;;;;;;;;;23.90;1.00;;;;;;10285283;28;85344;-60
2022/05/03 13:09:13;;;;;;;;;;;22.90;1.00;;;;;;10278911;28;84936;-60
2022/05/03 13:14:14;;;;;;;;;;;22.10;1.00;;;;;;10282668;28;84223;-57
2022/05/03 13:19:14;;;;;;;;;;;21.50;1.00;;;;;;10292180;28;84199;-49
2022/05/03 13:24:16;;;;;;;;;;;21.00;1.00;;;;;;10300670;28;84171;-49
2022/05/03 13:29:18;;;;;;;;;;;20.70;1.00;;;;;;10324256;28;84749;-52
2022/05/03 13:34:18;;;;;;;;;;;21.40;1.00;;;;;;10329639;28;84123;-52
2022/05/03 13:44:38;;;;;;;;;;;20.80;1.00;;;;;;10332414;28;84810;-49
2022/05/03 13:49:39;;;;;;;;;;;21.10;1.00;;;;;;10332247;28;84985;-57
2022/05/03 13:54:40;;;;;;;;;;;21.10;1.00;;;;;;10314757;28;84249;-50
2022/05/03 13:59:41;;;;;;;;;;;20.60;1.00;;;;;;10311741;28;85807;-51
2022/05/03 14:04:41;;;;;;;;;;;20.30;1.00;;;;;;10326140;28;84170;-52
2022/05/03 14:09:43;;;;;;;;;;;20.20;1.00;;;;;;10296823;28;85319;-53
2022/05/03 14:14:43;;;;;;;;;;;20.20;1.00;;;;;;10313760;28;85408;-50
2022/05/03 14:19:44;;;;;;;;;;;19.90;1.00;;;;;;10296727;28;84881;-50
2022/05/03 14:24:45;;;;;;;;;;;19.80;88.30;;;;;;10289966;28;84009;-54
2022/05/03 14:29:45;;;;;;;;;;;19.70;50.00;;;;;;10288770;28;84232;-52
2022/05/03 14:34:46;;;;;;;;;;;19.70;99.90;;;;;;10272012;28;87804;-52
2022/05/03 14:39:46;;;;;;;;;;;19.70;99.90;;;;;;10284422;22;84971;-48
2022/05/03 14:44:47;;;;;;;;;;;19.90;99.90;;;;;;10247063;28;85122;-47
2022/05/03 14:49:48;;;;;;;;;;;19.90;99.90;;;;;;10267365;28;86344;-47
2022/05/03 14:54:49;;;;;;;;;;;19.90;1.00;;;;;;10289690;28;84051;-47
2022/05/03 15:05:09;;;;;;;;;;;20.00;99.90;;;;;;10290364;28;84874;-48
2022/05/03 15:10:10;;;;;;;;;;;20.20;99.90;;;;;;10288993;28;84146;-46
2022/05/03 15:15:14;;;;;;;;;;;20.10;99.90;;;;;;10288864;28;85179;-46
2022/05/03 15:20:15;;;;;;;;;;;20.10;99.90;;;;;;10288246;28;84106;-46
2022/05/03 15:25:16;;;;;;;;;;;19.60;1.00;;;;;;10288491;28;83943;-52
2022/05/03 15:30:23;;;;;;;;;;;19.50;1.00;;;;;;10263459;28;87464;-47
2022/05/03 15:35:24;;;;;;;;;;;19.20;1.00;;;;;;10281004;28;85250;-45
2022/05/03 15:40:25;;;;;;;;;;;18.80;1.00;;;;;;10286034;28;84753;-51
2022/05/03 15:45:25;;;;;;;;;;;18.90;72.90;;;;;;10278609;28;85177;-49
2022/05/03 15:50:26;;;;;;;;;;;19.00;1.00;;;;;;10278102;28;84308;-49
2022/05/03 15:55:27;;;;;;;;;;;18.90;1.00;;;;;;10273763;28;84286;-46
2022/05/03 16:00:27;;;;;;;;;;;18.80;1.00;;;;;;10278657;28;84958;-48
2022/05/03 16:05:28;;;;;;;;;;;18.80;1.00;;;;;;10271192;28;84282;-51
2022/05/03 16:10:29;;;;;;;;;;;18.60;99.90;;;;;;10279006;28;84997;-47
2022/05/03 16:15:29;;;;;;;;;;;18.60;1.00;;;;;;10272073;28;85118;-49
2022/05/03 16:20:30;;;;;;;;;;;18.40;99.90;;;;;;10261727;28;87418;-48
2022/05/03 16:25:30;;;;;;;;;;;18.30;1.00;;;;;;10257827;28;87190;-50
2022/05/03 16:30:31;;;;;;;;;;;18.20;1.00;;;;;;10278151;28;84894;-51
2022/05/03 16:35:31;;;;;;;;;;;18.20;59.00;;;;;;10251785;28;86869;-50
2022/05/03 16:45:52;;;;;;;;;;;17.80;1.00;;;;;;10250226;28;85215;-48
2022/05/03 16:50:52;;;;;;;;;;;17.90;1.00;;;;;;10254221;28;85794;-50
2022/05/03 16:55:53;;;;;;;;;;;17.90;99.90;;;;;;10258228;28;84879;-48
2022/05/03 17:00:54;;;;;;;;;;;17.80;99.90;;;;;;10244613;28;85078;-48
2022/05/03 17:05:54;;;;;;;;;;;17.90;99.90;;;;;;10244767;28;84853;-50
2022/05/03 17:10:55;;;;;;;;;;;17.70;1.00;;;;;;10253136;28;84531;-50
2022/05/03 17:15:55;;;;;;;;;;;17.50;1.00;;;;;;10261444;28;84227;-47
2022/05/03 17:20:56;;;;;;;;;;;17.60;1.00;;;;;;10250669;28;84073;-52
2022/05/03 17:25:56;;;;;;;;;;;17.50;1.00;;;;;;10259762;28;85934;-51
2022/05/03 17:30:58;;;;;;;;;;;17.50;99.90;;;;;;10250634;28;84939;-48
2022/05/03 17:35:58;;;;;;;;;;;17.40;1.00;;;;;;10261431;28;84994;-52
2022/05/03 17:40:59;;;;;;;;;;;17.20;22.70;;;;;;10283324;28;84965;-48
2022/05/03 17:45:59;;;;;;;;;;;17.20;99.90;;;;;;10270658;28;84148;-48
2022/05/03 17:51:00;;;;;;;;;;;17.20;99.90;;;;;;10237252;28;87398;-50
2022/05/03 17:56:02;;;;;;;;;;;17.00;99.90;;;;;;10251614;28;84229;-47
2022/05/03 18:01:04;;;;;;;;;;;16.80;99.90;;;;;;10259575;28;84859;-48
2022/05/03 18:06:06;;;;;;;;;;;16.50;1.00;;;;;;10280932;28;85107;-49
2022/05/03 18:11:07;;;;;;;;;;;16.40;12.60;;;;;;10273956;28;84923;-48
2022/05/03 18:16:14;;;;;;;;;;;16.30;99.90;;;;;;10253761;28;85959;-50
2022/05/03 18:21:15;;;;;;;;;;;16.10;1.00;;;;;;10262954;28;84954;-53
2022/05/03 18:26:16;;;;;;;;;;;15.90;1.00;;;;;;10250250;28;85976;-53
2022/05/03 18:31:17;;;;;;;;;;;15.80;1.00;;;;;;10263269;28;85779;-50
2022/05/03 18:36:17;;;;;;;;;;;15.70;1.00;;;;;;10252892;28;84229;-50
2022/05/03 18:41:18;;;;;;;;;;;15.60;1.00;;;;;;10236460;28;86904;-49
2022/05/03 18:46:18;;;;;;;;;;;15.50;1.00;;;;;;10243903;28;85031;-47
2022/05/03 18:51:19;;;;;;;;;;;15.40;1.00;;;;;;10256021;28;84830;-45
2022/05/03 18:56:19;;;;;;;;;;;15.30;1.00;;;;;;10241545;28;85966;-48
2022/05/03 19:01:20;;;;;;;;;;;15.10;68.50;;;;;;10258711;28;87000;-47
2022/05/03 19:06:22;;;;;;;;;;;15.00;99.90;;;;;;10255749;28;84370;-47
2022/05/03 19:11:24;;;;;;;;;;;14.90;99.90;;;;;;10255476;28;85167;-47
2022/05/03 19:16:26;;;;;;;;;;;14.70;99.90;;;;;;10260732;28;84725;-52
2022/05/03 19:21:27;;;;;;;;;;;14.60;99.90;;;;;;10254015;28;84564;-45
2022/05/03 19:31:50;;;;;;;;;;;14.50;99.90;;;;;;10271477;28;86594;-49
2022/05/03 19:36:51;;;;;;;;;;;14.30;99.90;;;;;;10284565;28;84219;-50
2022/05/03 19:41:52;;;;;;;;;;;14.30;99.90;;;;;;10288499;28;84019;-48
2022/05/03 19:46:53;;;;;;;;;;;14.20;99.90;;;;;;10289615;28;84872;-48
2022/05/03 19:51:55;;;;;;;;;;;14.00;99.90;;;;;;10285461;28;85183;-48
2022/05/03 19:56:55;;;;;;;;;;;14.00;99.90;;;;;;10285640;28;85667;-47
2022/05/03 20:01:57;;;;;;;;;;;13.90;99.90;;;;;;10285574;28;84773;-48
2022/05/03 20:06:57;;;;;;;;;;;13.80;99.90;;;;;;10283933;28;84554;-47
2022/05/03 20:11:58;;;;;;;;;;;13.70;99.90;;;;;;10280375;28;84134;-48
2022/05/03 20:16:59;;;;;;;;;;;13.60;1.00;;;;;;10261224;28;84858;-52
2022/05/03 20:22:00;;;;;;;;;;;13.40;1.00;;;;;;10276817;28;84289;-46
2022/05/03 20:27:00;;;;;;;;;;;13.30;1.00;;;;;;10271628;28;84273;-47
2022/05/03 20:32:02;;;;;;;;;;;13.30;1.00;;;;;;10263918;28;84846;-48
2022/05/03 20:37:03;;;;;;;;;;;13.20;1.00;;;;;;10254046;28;84776;-47
2022/05/03 20:42:04;;;;;;;;;;;13.10;1.00;;;;;;10290709;22;84706;-58
2022/05/03 20:52:24;;;;;;;;;;;13.00;1.00;;;;;;10261769;28;85176;-59
2022/05/03 20:57:24;;;;;;;;;;;12.90;1.00;;;;;;10260525;28;85045;-59
2022/05/03 21:02:25;;;;;;;;;;;12.90;1.00;;;;;;10236940;28;87079;-59
2022/05/03 21:07:26;;;;;;;;;;;12.80;1.00;;;;;;10259422;28;85319;-58
2022/05/03 21:12:27;;;;;;;;;;;12.60;1.00;;;;;;10275027;28;84248;-58
2022/05/03 21:17:27;;;;;;;;;;;12.50;1.00;;;;;;10275312;28;84710;-58
2022/05/03 21:22:28;;;;;;;;;;;12.30;1.00;;;;;;10258754;28;85308;-59
2022/05/03 21:27:28;;;;;;;;;;;12.30;1.00;;;;;;10226294;28;85381;-57
2022/05/03 21:32:29;;;;;;;;;;;12.20;1.00;;;;;;10218991;28;84855;-52
2022/05/03 21:37:29;;;;;;;;;;;12.00;1.00;;;;;;10232464;28;85009;-56
2022/05/03 21:42:30;;;;;;;;;;;11.90;1.00;;;;;;10260128;28;83951;-53
2022/05/03 21:47:33;;;;;;;;;;;11.90;1.00;;;;;;10244205;28;84288;-51
2022/05/03 21:52:33;;;;;;;;;;;11.80;1.00;;;;;;10215952;28;84896;-56
2022/05/03 21:57:34;;;;;;;;;;;11.70;1.00;;;;;;10225101;28;84102;-55
2022/05/03 22:02:34;;;;;;;;;;;11.60;1.00;;;;;;10234160;28;84824;-55
2022/05/03 22:07:35;;;;;;;;;;;11.50;1.00;;;;;;10237074;28;84843;-53
2022/05/03 22:12:36;;;;;;;;;;;11.50;1.00;;;;;;10211486;28;84161;-52
2022/05/03 22:17:37;;;;;;;;;;;11.50;1.00;;;;;;10224737;28;86039;-56
2022/05/03 22:22:38;;;;;;;;;;;11.40;1.00;;;;;;10251704;28;86674;-53
2022/05/03 22:27:39;;;;;;;;;;;11.40;1.00;;;;;;10236303;28;85100;-52
2022/05/03 22:32:40;;;;;;;;;;;11.40;1.00;;;;;;10211878;28;85145;-56
2022/05/03 22:37:40;;;;;;;;;;;11.30;1.00;;;;;;10227913;28;85799;-55
2022/05/03 22:42:41;;;;;;;;;;;11.30;1.00;;;;;;10239517;28;85940;-54
2022/05/03 22:47:42;;;;;;;;;;;11.10;1.00;;;;;;10232011;28;84052;-53
2022/05/03 22:52:44;;;;;;;;;;;11.10;1.00;;;;;;10223963;28;83997;-56
2022/05/03 22:57:44;;;;;;;;;;;11.20;1.00;;;;;;10249511;28;84830;-53
2022/05/03 23:02:45;;;;;;;;;;;11.00;1.00;;;;;;10264642;28;84940;-56
2022/05/03 23:07:45;;;;;;;;;;;11.00;1.00;;;;;;10240425;28;84257;-57
2022/05/03 23:12:46;;;;;;;;;;;11.00;1.00;;;;;;10221385;28;84110;-54
2022/05/03 23:17:47;;;;;;;;;;;11.00;1.00;;;;;;10217812;28;84216;-53
2022/05/03 23:22:47;;;;;;;;;;;11.00;1.00;;;;;;10241814;28;84162;-53
2022/05/03 23:27:48;;;;;;;;;;;10.90;1.00;;;;;;10235940;28;84266;-55
2022/05/03 23:32:49;;;;;;;;;;;10.80;1.00;;;;;;10191105;28;87108;-56
2022/05/03 23:37:49;;;;;;;;;;;10.70;1.00;;;;;;10246013;28;84051;-55
2022/05/03 23:42:50;;;;;;;;;;;10.50;1.00;;;;;;10248549;28;84795;-54
2022/05/03 23:47:51;;;;;;;;;;;10.50;1.00;;;;;;10247720;28;84927;-51
2022/05/03 23:52:53;;;;;;;;;;;10.30;1.00;;;;;;10230801;28;84071;-53
2022/05/03 23:57:54;;;;;;;;;;;10.20;1.00;;;;;;10208326;28;84439;-52
